createdAt,value
2019-04-27T00:01:28.516Z,71.36
2019-04-27T00:04:04.690Z,71.42
2019-04-27T00:06:11.429Z,71.45
2019-04-27T00:08:28.491Z,71.34
2019-04-27T00:10:36.667Z,71.40
2019-04-27T00:12:40.435Z,71.41
2019-04-27T00:14:48.453Z,71.44
2019-04-27T00:17:03.906Z,71.85
2019-04-27T00:19:38.792Z,72.05
2019-04-27T00:21:52.924Z,72.23
2019-04-27T00:23:57.767Z,72.38
2019-04-27T00:26:03.161Z,72.53
2019-04-27T00:28:08.089Z,72.51
2019-04-27T00:30:14.062Z,72.45
2019-04-27T00:32:17.851Z,72.28
2019-04-27T00:34:23.637Z,72.20
2019-04-27T00:36:35.258Z,72.20
2019-04-27T00:38:58.097Z,72.29
2019-04-27T00:41:08.696Z,72.25
2019-04-27T00:43:14.062Z,72.18
2019-04-27T00:45:17.903Z,72.23
2019-04-27T00:47:21.743Z,72.12
2019-04-27T00:49:25.538Z,72.32
2019-04-27T00:51:30.384Z,72.38
2019-04-27T00:53:34.174Z,72.63
2019-04-27T00:55:45.061Z,72.57
2019-04-27T00:58:13.673Z,72.51
2019-04-27T01:00:45.184Z,72.41
2019-04-27T01:02:59.996Z,72.34
2019-04-27T01:05:08.321Z,72.41
2019-04-27T01:07:14.074Z,72.30
2019-04-27T01:09:18.884Z,72.34
2019-04-27T01:11:24.806Z,72.41
2019-04-27T01:13:29.457Z,72.41
2019-04-27T01:15:34.135Z,72.38
2019-04-27T01:17:39.076Z,72.28
2019-04-27T01:19:42.954Z,72.21
2019-04-27T01:21:46.769Z,72.26
2019-04-27T01:23:50.583Z,72.24
2019-04-27T01:26:12.025Z,72.22
2019-04-27T01:28:25.669Z,72.25
2019-04-27T01:30:41.231Z,72.23
2019-04-27T01:32:47.043Z,72.28
2019-04-27T01:34:51.884Z,72.21
2019-04-27T01:36:55.672Z,72.20
2019-04-27T01:38:59.623Z,72.14
2019-04-27T01:41:03.460Z,72.12
2019-04-27T01:43:09.002Z,72.17
2019-04-27T01:45:13.547Z,72.21
2019-04-27T01:47:18.731Z,72.37
2019-04-27T01:49:23.802Z,72.29
2019-04-27T01:51:29.331Z,72.20
2019-04-27T01:53:33.252Z,72.13
2019-04-27T01:55:38.620Z,72.01
2019-04-27T01:57:43.525Z,71.94
2019-04-27T01:59:48.927Z,72.11
2019-04-27T02:02:19.092Z,72.10
2019-04-27T02:04:40.881Z,72.15
2019-04-27T02:06:48.627Z,72.11
2019-04-27T02:08:52.602Z,72.05
2019-04-27T02:10:56.412Z,72.10
2019-04-27T02:13:00.310Z,72.05
2019-04-27T02:15:04.752Z,72.38
2019-04-27T02:17:09.803Z,72.62
2019-04-27T02:19:13.494Z,72.76
2019-04-27T02:21:18.854Z,72.63
2019-04-27T02:23:22.833Z,72.75
2019-04-27T02:25:26.641Z,72.94
2019-04-27T02:27:32.357Z,73.05
2019-04-27T02:29:56.294Z,73.07
2019-04-27T02:32:26.299Z,73.11
2019-04-27T02:34:32.434Z,73.07
2019-04-27T02:36:39.170Z,73.14
2019-04-27T02:38:43.002Z,73.19
2019-04-27T02:40:55.559Z,73.21
2019-04-27T02:42:59.803Z,73.23
2019-04-27T02:45:04.451Z,73.23
2019-04-27T02:47:10.436Z,73.40
2019-04-27T02:49:14.516Z,73.34
2019-04-27T02:51:34.567Z,73.25
2019-04-27T02:53:54.805Z,73.15
2019-04-27T02:55:59.693Z,73.04
2019-04-27T02:58:03.439Z,72.90
2019-04-27T03:00:10.523Z,72.82
2019-04-27T03:02:23.942Z,72.71
2019-04-27T03:04:30.135Z,72.60
2019-04-27T03:06:33.419Z,72.47
2019-04-27T03:08:39.400Z,72.39
2019-04-27T03:10:43.755Z,72.30
2019-04-27T03:12:52.736Z,72.22
2019-04-27T03:15:05.196Z,72.13
2019-04-27T03:17:34.109Z,72.07
2019-04-27T03:19:45.584Z,72.02
2019-04-27T03:21:54.994Z,71.95
2019-04-27T03:24:00.203Z,71.97
2019-04-27T03:26:23.206Z,72.00
2019-04-27T03:28:29.789Z,71.98
2019-04-27T03:30:36.121Z,71.93
2019-04-27T03:32:43.176Z,72.00
2019-04-27T03:34:46.111Z,72.10
2019-04-27T03:36:51.696Z,72.41
2019-04-27T03:38:56.104Z,72.40
2019-04-27T03:41:00.598Z,72.52
2019-04-27T03:43:13.585Z,72.56
2019-04-27T03:45:19.944Z,72.82
2019-04-27T03:47:23.001Z,72.81
2019-04-27T03:49:34.397Z,72.86
2019-04-27T03:51:51.461Z,73.03
2019-04-27T03:54:14.397Z,73.14
2019-04-27T03:56:30.544Z,73.22
2019-04-27T03:58:39.383Z,73.26
2019-04-27T04:00:43.773Z,73.26
2019-04-27T04:02:50.060Z,73.28
2019-04-27T04:04:53.229Z,73.38
2019-04-27T04:07:09.640Z,73.43
2019-04-27T04:09:14.812Z,73.47
2019-04-27T04:11:30.402Z,73.49
2019-04-27T04:13:39.708Z,73.44
2019-04-27T04:15:52.228Z,73.39
2019-04-27T04:17:56.218Z,73.42
2019-04-27T04:20:01.919Z,73.23
2019-04-27T04:22:05.933Z,73.21
2019-04-27T04:24:12.200Z,73.19
2019-04-27T04:26:16.325Z,73.06
2019-04-27T04:28:20.297Z,72.88
2019-04-27T04:30:24.138Z,72.73
2019-04-27T04:32:29.769Z,72.62
2019-04-27T04:34:34.714Z,72.58
2019-04-27T04:36:42.687Z,72.51
2019-04-27T04:38:45.158Z,72.46
2019-04-27T04:40:55.981Z,72.46
2019-04-27T04:43:06.092Z,72.62
2019-04-27T04:45:21.013Z,72.64
2019-04-27T04:47:55.958Z,72.58
2019-04-27T04:50:10.220Z,72.55
2019-04-27T04:52:05.235Z,72.43
2019-04-27T04:54:09.550Z,72.34
2019-04-27T04:56:14.494Z,72.19
2019-04-27T04:58:20.919Z,72.10
2019-04-27T05:00:23.837Z,72.09
2019-04-27T05:02:29.304Z,72.09
2019-04-27T05:04:34.197Z,71.99
2019-04-27T05:06:38.989Z,71.93
2019-04-27T05:08:43.869Z,71.91
2019-04-27T05:10:49.514Z,71.90
2019-04-27T05:12:53.210Z,71.92
2019-04-27T05:14:57.015Z,71.89
2019-04-27T05:17:00.815Z,71.82
2019-04-27T05:19:04.636Z,71.79
2019-04-27T05:21:14.787Z,71.71
2019-04-27T05:23:18.747Z,71.69
2019-04-27T05:25:22.674Z,71.73
2019-04-27T05:27:26.488Z,71.76
2019-04-27T05:29:31.302Z,71.86
2019-04-27T05:31:35.192Z,71.80
2019-04-27T05:33:39.023Z,71.74
2019-04-27T05:35:42.820Z,71.78
2019-04-27T05:37:46.639Z,71.76
2019-04-27T05:39:50.457Z,71.75
2019-04-27T05:41:55.260Z,71.69
2019-04-27T05:44:20.670Z,71.69
2019-04-27T05:46:43.526Z,71.61
2019-04-27T05:48:48.872Z,71.76
2019-04-27T05:50:58.768Z,71.76
2019-04-27T05:52:59.712Z,71.69
2019-04-27T05:55:05.702Z,71.87
2019-04-27T05:57:10.517Z,71.73
2019-04-27T05:59:15.261Z,71.46
2019-04-27T06:01:19.633Z,71.27
2019-04-27T06:03:23.532Z,71.20
2019-04-27T06:05:29.120Z,70.95
2019-04-27T06:07:32.790Z,70.48
2019-04-27T06:09:36.688Z,70.29
2019-04-27T06:11:40.545Z,70.29
2019-04-27T06:13:44.322Z,70.01
2019-04-27T06:15:49.935Z,69.51
2019-04-27T06:17:53.874Z,69.38
2019-04-27T06:19:59.514Z,69.33
2019-04-27T06:22:03.219Z,69.19
2019-04-27T06:24:08.699Z,69.20
2019-04-27T06:26:12.682Z,69.26
2019-04-27T06:28:16.537Z,69.24
2019-04-27T06:30:20.359Z,69.29
2019-04-27T06:32:24.266Z,69.15
2019-04-27T06:34:31.016Z,69.24
2019-04-27T06:36:35.573Z,69.35
2019-04-27T06:38:39.538Z,69.31
2019-04-27T06:40:43.288Z,69.21
2019-04-27T06:42:48.632Z,68.94
2019-04-27T06:44:53.549Z,68.84
2019-04-27T06:46:59.034Z,68.90
2019-04-27T06:49:02.832Z,68.75
2019-04-27T06:51:09.530Z,68.52
2019-04-27T06:53:13.169Z,68.31
2019-04-27T06:55:18.770Z,67.94
2019-04-27T06:57:22.514Z,67.61
2019-04-27T06:59:28.819Z,67.42
2019-04-27T07:01:33.817Z,67.31
2019-04-27T07:03:39.405Z,67.04
2019-04-27T07:05:44.177Z,67.00
2019-04-27T07:07:49.050Z,66.87
2019-04-27T07:09:52.722Z,66.99
2019-04-27T07:11:56.498Z,66.75
2019-04-27T07:14:00.321Z,66.75
2019-04-27T07:16:04.273Z,66.90
2019-04-27T07:18:09.619Z,66.87
2019-04-27T07:20:13.814Z,66.99
2019-04-27T07:22:17.570Z,67.07
2019-04-27T07:24:21.374Z,67.18
2019-04-27T07:26:26.322Z,67.28
2019-04-27T07:28:30.099Z,67.28
2019-04-27T07:30:34.833Z,67.26
2019-04-27T07:32:39.053Z,67.07
2019-04-27T07:34:43.996Z,66.78
2019-04-27T07:36:49.078Z,66.73
2019-04-27T07:38:55.238Z,66.75
2019-04-27T07:41:00.006Z,66.47
2019-04-27T07:43:10.389Z,66.14
2019-04-27T07:45:19.589Z,65.86
2019-04-27T07:47:29.411Z,66.03
2019-04-27T07:49:33.649Z,66.05
2019-04-27T07:51:39.202Z,65.85
2019-04-27T07:53:45.025Z,65.47
2019-04-27T07:55:49.496Z,65.19
2019-04-27T07:57:54.287Z,65.22
2019-04-27T07:59:59.637Z,64.92
2019-04-27T08:02:03.659Z,64.54
2019-04-27T08:04:09.094Z,64.30
2019-04-27T08:06:13.084Z,64.14
2019-04-27T08:08:16.871Z,63.96
2019-04-27T08:10:20.734Z,63.89
2019-04-27T08:12:24.487Z,63.65
2019-04-27T08:14:29.382Z,64.09
2019-04-27T08:16:35.169Z,64.28
2019-04-27T08:18:39.638Z,64.10
2019-04-27T08:20:43.447Z,63.08
2019-04-27T08:22:47.283Z,63.08
2019-04-27T08:24:53.040Z,62.69
2019-04-27T08:27:03.109Z,60.95
2019-04-27T08:29:24.690Z,60.07
2019-04-27T08:31:53.169Z,59.55
2019-04-27T08:33:58.303Z,59.46
2019-04-27T08:36:03.610Z,59.25
2019-04-27T08:38:09.033Z,58.38
2019-04-27T08:40:13.755Z,58.11
2019-04-27T08:42:19.250Z,57.23
2019-04-27T08:44:23.247Z,56.71
2019-04-27T08:46:28.643Z,56.45
2019-04-27T08:48:36.765Z,55.61
2019-04-27T08:50:41.759Z,55.03
2019-04-27T08:52:44.535Z,55.03
2019-04-27T08:54:49.286Z,54.99
2019-04-27T08:56:53.882Z,54.32
2019-04-27T08:58:59.413Z,54.01
2019-04-27T09:01:03.296Z,53.32
2019-04-27T09:03:07.138Z,52.37
2019-04-27T09:05:12.597Z,53.21
2019-04-27T09:07:50.563Z,53.10
2019-04-27T09:09:59.615Z,52.86
2019-04-27T09:12:21.455Z,53.26
2019-04-27T09:14:30.730Z,53.42
2019-04-27T09:16:57.994Z,52.71
2019-04-27T09:18:53.694Z,52.21
2019-04-27T09:20:59.595Z,52.81
2019-04-27T09:23:04.489Z,53.13
2019-04-27T09:25:09.392Z,53.68
2019-04-27T09:27:13.251Z,53.50
2019-04-27T09:29:17.040Z,52.44
2019-04-27T09:31:20.841Z,52.64
2019-04-27T09:33:24.642Z,52.04
2019-04-27T09:35:28.506Z,51.03
2019-04-27T09:37:32.268Z,50.43
2019-04-27T09:39:37.080Z,50.43
2019-04-27T09:41:40.891Z,50.60
2019-04-27T09:43:46.513Z,49.92
2019-04-27T09:45:50.298Z,49.78
2019-04-27T09:47:56.107Z,49.97
2019-04-27T09:49:59.667Z,49.96
2019-04-27T09:52:04.021Z,49.08
2019-04-27T09:54:07.871Z,49.44
2019-04-27T09:56:11.687Z,49.87
2019-04-27T09:58:16.018Z,52.35
2019-04-27T10:00:21.692Z,55.93
2019-04-27T10:02:28.674Z,53.21
2019-04-27T10:04:32.448Z,52.76
2019-04-27T10:06:36.394Z,52.41
2019-04-27T10:08:41.184Z,52.83
2019-04-27T10:10:45.995Z,52.90
2019-04-27T10:12:50.525Z,52.55
2019-04-27T10:14:55.869Z,52.32
2019-04-27T10:16:59.869Z,51.56
2019-04-27T10:19:03.763Z,51.78
2019-04-27T10:21:08.600Z,50.86
2019-04-27T10:23:13.423Z,51.51
2019-04-27T10:25:23.671Z,51.54
2019-04-27T10:27:27.481Z,51.46
2019-04-27T10:29:31.359Z,51.90
2019-04-27T10:31:35.206Z,51.61
2019-04-27T10:33:39.012Z,49.38
2019-04-27T10:35:43.887Z,47.81
2019-04-27T10:37:47.622Z,47.41
2019-04-27T10:39:51.443Z,47.02
2019-04-27T10:41:56.354Z,47.39
2019-04-27T10:44:00.279Z,48.16
2019-04-27T10:46:04.207Z,47.59
2019-04-27T10:48:07.971Z,47.20
2019-04-27T10:50:11.976Z,45.13
2019-04-27T10:52:15.790Z,45.51
2019-04-27T10:54:19.683Z,42.71
2019-04-27T10:56:25.479Z,42.78
2019-04-27T10:58:29.965Z,43.44
2019-04-27T11:00:41.776Z,43.46
2019-04-27T11:02:45.536Z,43.59
2019-04-27T11:05:16.394Z,43.40
2019-04-27T11:07:21.747Z,43.21
2019-04-27T11:09:26.697Z,43.36
2019-04-27T11:11:30.600Z,43.82
2019-04-27T11:13:35.885Z,43.76
2019-04-27T11:15:40.087Z,43.59
2019-04-27T11:17:47.247Z,43.05
2019-04-27T11:19:49.868Z,40.94
2019-04-27T11:21:53.669Z,41.07
2019-04-27T11:23:58.585Z,40.91
2019-04-27T11:26:02.589Z,39.42
2019-04-27T11:28:06.410Z,38.96
2019-04-27T11:30:11.378Z,39.34
2019-04-27T11:32:16.666Z,39.63
2019-04-27T11:34:22.367Z,39.60
2019-04-27T11:36:45.592Z,38.78
2019-04-27T11:38:50.458Z,39.64
2019-04-27T11:40:54.285Z,39.96
2019-04-27T11:42:58.183Z,39.71
2019-04-27T11:45:01.957Z,39.28
2019-04-27T11:47:06.065Z,37.91
2019-04-27T11:49:09.931Z,38.09
2019-04-27T11:51:17.388Z,38.28
2019-04-27T11:53:23.159Z,38.15
2019-04-27T11:55:27.326Z,37.97
2019-04-27T11:57:31.285Z,37.97
2019-04-27T11:59:35.100Z,36.73
2019-04-27T12:01:38.911Z,35.74
2019-04-27T12:03:44.109Z,36.37
2019-04-27T12:05:47.943Z,35.17
2019-04-27T12:07:51.783Z,35.64
2019-04-27T12:09:55.657Z,34.64
2019-04-27T12:12:12.644Z,34.80
2019-04-27T12:14:06.191Z,35.05
2019-04-27T12:16:12.254Z,35.43
2019-04-27T12:18:17.007Z,36.54
2019-04-27T12:20:25.633Z,37.60
2019-04-27T12:22:30.660Z,37.07
2019-04-27T12:24:35.590Z,37.43
2019-04-27T12:26:47.111Z,37.44
2019-04-27T12:28:51.984Z,38.16
2019-04-27T12:31:03.392Z,40.26
2019-04-27T12:33:08.275Z,41.04
2019-04-27T12:35:12.497Z,41.89
2019-04-27T12:37:17.311Z,42.92
2019-04-27T12:39:21.148Z,44.04
2019-04-27T12:41:24.962Z,44.78
2019-04-27T12:43:28.741Z,45.66
2019-04-27T12:45:32.942Z,47.06
2019-04-27T12:47:36.844Z,48.08
2019-04-27T12:49:40.814Z,50.41
2019-04-27T12:51:45.634Z,51.58
2019-04-27T12:54:10.014Z,52.59
2019-04-27T12:56:31.591Z,52.79
2019-04-27T12:58:44.187Z,54.62
2019-04-27T13:00:49.136Z,55.52
2019-04-27T13:02:55.576Z,56.72
2019-04-27T13:05:00.587Z,56.98
2019-04-27T13:07:05.918Z,57.12
2019-04-27T13:09:10.235Z,58.04
2019-04-27T13:11:14.010Z,57.92
2019-04-27T13:13:18.893Z,57.62
2019-04-27T13:15:22.781Z,57.32
2019-04-27T13:17:26.629Z,57.46
2019-04-27T13:19:30.502Z,58.06
2019-04-27T13:21:36.540Z,58.41
2019-04-27T13:23:40.473Z,58.89
2019-04-27T13:25:46.052Z,61.02
2019-04-27T13:27:51.221Z,61.72
2019-04-27T13:29:55.674Z,61.02
2019-04-27T13:32:00.566Z,60.23
2019-04-27T13:34:05.768Z,59.96
2019-04-27T13:36:10.702Z,59.23
2019-04-27T13:38:17.785Z,59.00
2019-04-27T13:40:22.727Z,58.49
2019-04-27T13:42:28.309Z,59.31
2019-04-27T13:44:35.923Z,59.02
2019-04-27T13:46:57.749Z,57.83
2019-04-27T13:49:37.966Z,57.50
2019-04-27T13:51:52.789Z,56.49
2019-04-27T13:53:56.518Z,57.50
2019-04-27T13:56:02.176Z,57.23
2019-04-27T13:58:05.946Z,57.29
2019-04-27T14:00:12.075Z,57.14
2019-04-27T14:02:16.219Z,56.66
2019-04-27T14:04:24.011Z,56.68
2019-04-27T14:06:27.501Z,56.04
2019-04-27T14:08:31.316Z,55.20
2019-04-27T14:10:35.103Z,54.46
2019-04-27T14:12:39.843Z,54.80
2019-04-27T14:14:43.634Z,55.53
2019-04-27T14:16:48.464Z,55.76
2019-04-27T14:18:54.211Z,55.91
2019-04-27T14:20:59.210Z,56.04
2019-04-27T14:23:15.011Z,55.81
2019-04-27T14:25:18.836Z,55.44
2019-04-27T14:27:24.911Z,55.21
2019-04-27T14:29:28.697Z,55.64
2019-04-27T14:31:32.565Z,55.73
2019-04-27T14:33:39.587Z,55.95
2019-04-27T14:35:42.118Z,56.77
2019-04-27T14:37:47.680Z,57.50
2019-04-27T14:39:51.503Z,58.90
2019-04-27T14:41:55.374Z,58.83
2019-04-27T14:44:07.458Z,59.58
2019-04-27T14:46:04.988Z,59.49
2019-04-27T14:48:08.751Z,59.67
2019-04-27T14:50:12.832Z,59.43
2019-04-27T14:52:16.566Z,58.53
2019-04-27T14:54:20.292Z,58.54
2019-04-27T14:56:25.011Z,59.13
2019-04-27T14:58:28.882Z,58.71
2019-04-27T15:00:38.452Z,58.99
2019-04-27T15:02:42.512Z,58.88
2019-04-27T15:04:47.319Z,58.71
2019-04-27T15:06:51.312Z,58.00
2019-04-27T15:08:55.782Z,58.13
2019-04-27T15:10:59.943Z,58.02
2019-04-27T15:13:06.600Z,57.74
2019-04-27T15:15:11.485Z,56.93
2019-04-27T15:17:17.564Z,57.29
2019-04-27T15:19:29.998Z,57.29
2019-04-27T15:21:38.265Z,56.90
2019-04-27T15:23:41.279Z,57.12
2019-04-27T15:25:47.049Z,57.01
2019-04-27T15:27:54.849Z,57.40
2019-04-27T15:30:03.044Z,57.67
2019-04-27T15:32:06.101Z,57.91
2019-04-27T15:34:33.175Z,58.05
2019-04-27T15:36:48.363Z,58.07
2019-04-27T15:38:53.748Z,57.80
2019-04-27T15:41:16.797Z,57.80
2019-04-27T15:43:27.253Z,58.08
2019-04-27T15:45:29.805Z,58.64
2019-04-27T15:47:33.770Z,58.97
2019-04-27T15:49:38.740Z,60.00
2019-04-27T15:51:44.022Z,60.01
2019-04-27T15:53:50.705Z,60.67
2019-04-27T15:55:57.472Z,60.93
2019-04-27T15:57:59.073Z,61.11
2019-04-27T16:00:05.109Z,60.95
2019-04-27T16:02:11.744Z,60.83
2019-04-27T16:04:14.522Z,60.66
2019-04-27T16:06:20.849Z,61.00
2019-04-27T16:08:24.818Z,60.87
2019-04-27T16:10:32.652Z,60.85
2019-04-27T16:12:38.187Z,60.80
2019-04-27T16:14:40.965Z,60.96
2019-04-27T16:16:48.761Z,61.14
2019-04-27T16:18:53.705Z,61.08
2019-04-27T16:20:58.691Z,60.98
2019-04-27T16:23:04.394Z,60.99
2019-04-27T16:25:11.020Z,60.94
2019-04-27T16:27:18.074Z,61.12
2019-04-27T16:29:23.054Z,61.12
2019-04-27T16:31:30.264Z,61.03
2019-04-27T16:33:34.715Z,60.80
2019-04-27T16:35:38.850Z,60.98
2019-04-27T16:37:56.441Z,62.44
2019-04-27T16:39:59.307Z,65.21
2019-04-27T16:42:03.198Z,68.25
2019-04-27T16:44:10.712Z,67.55
2019-04-27T16:46:12.784Z,68.53
2019-04-27T16:48:18.449Z,69.31
2019-04-27T16:50:25.505Z,70.51
2019-04-27T16:52:29.795Z,71.90
2019-04-27T16:54:33.791Z,71.66
2019-04-27T16:56:38.101Z,70.48
2019-04-27T16:58:41.942Z,70.74
2019-04-27T17:00:45.743Z,70.93
2019-04-27T17:02:50.576Z,70.85
2019-04-27T17:04:55.809Z,70.30
2019-04-27T17:06:59.726Z,69.95
2019-04-27T17:09:07.401Z,70.61
2019-04-27T17:11:13.629Z,71.50
2019-04-27T17:13:18.323Z,72.01
2019-04-27T17:15:42.246Z,71.34
2019-04-27T17:18:13.366Z,71.68
2019-04-27T17:20:20.997Z,71.44
2019-04-27T17:22:23.738Z,72.02
2019-04-27T17:24:41.522Z,72.43
2019-04-27T17:26:43.520Z,72.57
2019-04-27T17:28:55.692Z,72.90
2019-04-27T17:31:00.053Z,73.30
2019-04-27T17:33:24.088Z,74.25
2019-04-27T17:35:28.543Z,74.04
2019-04-27T17:37:34.391Z,73.83
2019-04-27T17:39:38.691Z,73.31
2019-04-27T17:41:49.305Z,73.26
2019-04-27T17:43:49.320Z,73.20
2019-04-27T17:45:53.117Z,72.40
2019-04-27T17:48:00.361Z,72.37
2019-04-27T17:50:05.261Z,72.46
2019-04-27T17:52:12.831Z,72.35
2019-04-27T17:54:14.588Z,72.18
2019-04-27T17:56:18.600Z,72.19
2019-04-27T17:58:22.457Z,71.49
2019-04-27T18:00:28.073Z,71.76
2019-04-27T18:02:33.768Z,71.36
2019-04-27T18:04:40.910Z,71.20
2019-04-27T18:06:43.296Z,71.49
2019-04-27T18:08:49.195Z,70.77
2019-04-27T18:10:53.638Z,70.93
2019-04-27T18:12:58.628Z,71.17
2019-04-27T18:15:02.505Z,71.52
2019-04-27T18:17:08.565Z,71.22
2019-04-27T18:19:32.024Z,71.31
2019-04-27T18:21:42.548Z,71.11
2019-04-27T18:23:52.223Z,71.24
2019-04-27T18:26:00.717Z,70.63
2019-04-27T18:28:15.182Z,70.94
2019-04-27T18:30:33.740Z,71.11
2019-04-27T18:32:40.373Z,71.05
2019-04-27T18:34:49.252Z,71.28
2019-04-27T18:36:51.611Z,71.14
2019-04-27T18:38:55.440Z,71.26
2019-04-27T18:41:03.066Z,71.12
2019-04-27T18:43:06.556Z,71.40
2019-04-27T18:45:12.717Z,71.11
2019-04-27T18:47:16.519Z,71.17
2019-04-27T18:49:51.451Z,71.10
2019-04-27T18:52:15.984Z,70.83
2019-04-27T18:54:19.813Z,70.76
2019-04-27T18:56:23.544Z,70.77
2019-04-27T18:58:27.319Z,70.96
2019-04-27T19:00:31.309Z,71.17
2019-04-27T19:02:35.200Z,71.07
2019-04-27T19:04:39.109Z,71.05
2019-04-27T19:06:43.001Z,70.98
2019-04-27T19:08:48.659Z,71.11
2019-04-27T19:10:52.363Z,71.13
2019-04-27T19:12:56.190Z,71.31
2019-04-27T19:14:59.988Z,71.40
2019-04-27T19:17:03.881Z,71.24
2019-04-27T19:19:08.669Z,71.11
2019-04-27T19:21:12.741Z,71.12
2019-04-27T19:23:16.556Z,70.76
2019-04-27T19:25:28.952Z,70.92
2019-04-27T19:27:51.913Z,70.87
2019-04-27T19:29:58.993Z,70.91
2019-04-27T19:32:03.238Z,70.75
2019-04-27T19:34:08.025Z,70.81
2019-04-27T19:36:11.865Z,70.80
2019-04-27T19:38:18.499Z,70.94
2019-04-27T19:40:22.278Z,70.85
2019-04-27T19:42:26.018Z,70.66
2019-04-27T19:44:29.793Z,70.82
2019-04-27T19:46:33.681Z,70.91
2019-04-27T19:48:38.523Z,70.82
2019-04-27T19:50:42.359Z,71.05
2019-04-27T19:52:46.104Z,71.13
2019-04-27T19:54:49.864Z,71.24
2019-04-27T19:56:53.678Z,71.34
2019-04-27T19:58:59.509Z,71.43
2019-04-27T20:01:19.560Z,71.53
2019-04-27T20:03:29.822Z,71.14
2019-04-27T20:05:35.587Z,71.37
2019-04-27T20:07:39.566Z,71.28
2019-04-27T20:09:52.532Z,71.25
2019-04-27T20:11:56.324Z,71.19
2019-04-27T20:14:01.136Z,71.04
2019-04-27T20:16:04.946Z,71.16
2019-04-27T20:18:10.827Z,71.04
2019-04-27T20:20:14.811Z,71.01
2019-04-27T20:22:18.569Z,70.96
2019-04-27T20:24:22.910Z,70.97
2019-04-27T20:26:26.694Z,71.00
2019-04-27T20:28:32.460Z,70.91
2019-04-27T20:30:36.189Z,70.94
2019-04-27T20:32:39.928Z,71.11
2019-04-27T20:34:44.778Z,71.06
2019-04-27T20:36:48.505Z,70.94
2019-04-27T20:38:52.453Z,71.00
2019-04-27T20:40:57.531Z,70.99
2019-04-27T20:43:01.685Z,71.05
2019-04-27T20:45:06.146Z,71.09
2019-04-27T20:47:10.154Z,70.98
2019-04-27T20:49:19.685Z,70.93
2019-04-27T20:51:43.886Z,71.04
2019-04-27T20:53:51.762Z,71.00
2019-04-27T20:55:55.540Z,71.07
2019-04-27T20:58:02.416Z,71.34
2019-04-27T21:00:05.117Z,71.42
2019-04-27T21:02:26.743Z,71.57
2019-04-27T21:04:33.962Z,71.54
2019-04-27T21:06:42.644Z,71.40
2019-04-27T21:08:46.586Z,71.36
2019-04-27T21:10:51.568Z,71.14
2019-04-27T21:12:56.399Z,71.00
2019-04-27T21:15:00.323Z,70.68
2019-04-27T21:17:04.121Z,70.41
2019-04-27T21:19:07.871Z,69.68
2019-04-27T21:21:11.643Z,69.16
2019-04-27T21:23:15.388Z,69.03
2019-04-27T21:25:19.119Z,68.79
2019-04-27T21:27:22.957Z,68.94
2019-04-27T21:29:27.797Z,69.43
2019-04-27T21:31:32.740Z,69.66
2019-04-27T21:33:36.516Z,70.16
2019-04-27T21:35:40.385Z,70.29
2019-04-27T21:37:44.333Z,70.37
2019-04-27T21:39:48.135Z,70.18
2019-04-27T21:41:52.947Z,70.29
2019-04-27T21:43:57.687Z,70.36
2019-04-27T21:46:01.476Z,70.52
2019-04-27T21:48:06.210Z,70.73
2019-04-27T21:50:12.381Z,71.02
2019-04-27T21:52:25.804Z,71.24
2019-04-27T21:54:35.039Z,71.75
2019-04-27T21:56:42.835Z,71.97
2019-04-27T21:58:51.136Z,72.12
2019-04-27T22:01:29.491Z,72.45
2019-04-27T22:03:35.643Z,72.76
2019-04-27T22:06:01.886Z,73.18
2019-04-27T22:08:13.918Z,73.29
2019-04-27T22:10:24.427Z,73.58
2019-04-27T22:12:33.011Z,73.89
2019-04-27T22:14:50.942Z,73.69
2019-04-27T22:17:06.648Z,73.62
2019-04-27T22:19:23.645Z,73.89
2019-04-27T22:21:43.086Z,74.09
2019-04-27T22:24:04.494Z,74.32
2019-04-27T22:26:14.307Z,74.44
2019-04-27T22:28:48.765Z,74.28
2019-04-27T22:30:48.028Z,74.30
2019-04-27T22:32:55.462Z,74.18
2019-04-27T22:35:05.567Z,73.91
2019-04-27T22:37:11.650Z,73.90
2019-04-27T22:39:46.354Z,73.87
2019-04-27T22:42:23.357Z,73.75
2019-04-27T22:44:36.054Z,73.40
2019-04-27T22:46:48.725Z,73.27
2019-04-27T22:48:55.353Z,73.33
2019-04-27T22:51:08.410Z,73.21
2019-04-27T22:53:14.049Z,73.24
2019-04-27T22:55:23.692Z,73.00
2019-04-27T22:57:38.316Z,73.09
2019-04-27T23:00:03.705Z,73.08
2019-04-27T23:02:22.030Z,72.86
2019-04-27T23:04:36.041Z,72.92
2019-04-27T23:06:56.132Z,72.72
2019-04-27T23:09:11.732Z,72.56
2019-04-27T23:11:32.989Z,72.64
2019-04-27T23:13:39.097Z,72.69
2019-04-27T23:15:48.039Z,72.81
2019-04-27T23:17:59.225Z,72.74
2019-04-27T23:20:05.091Z,72.68
2019-04-27T23:22:11.186Z,72.82
2019-04-27T23:24:15.421Z,72.54
2019-04-27T23:26:23.648Z,72.62
2019-04-27T23:28:32.271Z,72.61
2019-04-27T23:30:51.060Z,72.75
2019-04-27T23:33:05.261Z,72.62
2019-04-27T23:35:16.862Z,72.47
2019-04-27T23:37:36.330Z,72.47
2019-04-27T23:39:45.606Z,72.66
2019-04-27T23:41:54.068Z,72.65
2019-04-27T23:44:03.657Z,72.72
2019-04-27T23:46:32.372Z,72.80
2019-04-27T23:48:42.930Z,72.98
2019-04-27T23:51:01.574Z,72.97
2019-04-27T23:53:21.709Z,73.12
2019-04-27T23:55:42.105Z,73.24
2019-04-27T23:57:59.872Z,73.53
